sensor_id;sensor_type;location;lat;lon;timestamp;P1;durP1;ratioP1;P2;durP2;ratioP2
62945;SDS011;52164;52.212;-1.010;2022-09-14T00:00:58;0.50;;;0.50;;
62945;SDS011;52164;52.212;-1.010;2022-09-14T00:03:23;0.50;;;0.50;;
62945;SDS011;52164;52.212;-1.010;2022-09-14T00:05:49;0.50;;;0.50;;
62945;SDS011;52164;52.212;-1.010;2022-09-14T00:08:14;0.50;;;0.50;;
62945;SDS011;52164;52.212;-1.010;2022-09-14T00:10:41;0.50;;;0.50;;
62945;SDS011;52164;52.212;-1.010;2022-09-14T00:13:08;0.50;;;0.50;;
62945;SDS011;52164;52.212;-1.010;2022-09-14T00:15:35;0.50;;;0.50;;
62945;SDS011;52164;52.212;-1.010;2022-09-14T00:18:01;0.40;;;0.40;;
62945;SDS011;52164;52.212;-1.010;2022-09-14T00:20:28;0.50;;;0.50;;
62945;SDS011;52164;52.212;-1.010;2022-09-14T00:22:54;0.50;;;0.50;;
62945;SDS011;52164;52.212;-1.010;2022-09-14T00:25:21;0.50;;;0.50;;
62945;SDS011;52164;52.212;-1.010;2022-09-14T00:27:46;0.40;;;0.40;;
62945;SDS011;52164;52.212;-1.010;2022-09-14T00:30:12;0.50;;;0.50;;
62945;SDS011;52164;52.212;-1.010;2022-09-14T00:32:38;0.50;;;0.50;;
62945;SDS011;52164;52.212;-1.010;2022-09-14T00:35:03;0.50;;;0.50;;
62945;SDS011;52164;52.212;-1.010;2022-09-14T00:37:29;0.50;;;0.50;;
62945;SDS011;52164;52.212;-1.010;2022-09-14T00:39:54;0.50;;;0.50;;
62945;SDS011;52164;52.212;-1.010;2022-09-14T00:42:20;0.40;;;0.40;;
62945;SDS011;52164;52.212;-1.010;2022-09-14T00:47:11;0.50;;;0.50;;
62945;SDS011;52164;52.212;-1.010;2022-09-14T00:49:38;0.40;;;0.40;;
62945;SDS011;52164;52.212;-1.010;2022-09-14T00:52:07;0.50;;;0.50;;
62945;SDS011;52164;52.212;-1.010;2022-09-14T00:54:53;0.50;;;0.50;;
62945;SDS011;52164;52.212;-1.010;2022-09-14T00:57:21;0.50;;;0.50;;
62945;SDS011;52164;52.212;-1.010;2022-09-14T00:59:49;0.40;;;0.40;;
62945;SDS011;52164;52.212;-1.010;2022-09-14T01:02:17;0.50;;;0.50;;
62945;SDS011;52164;52.212;-1.010;2022-09-14T01:04:45;0.50;;;0.50;;
62945;SDS011;52164;52.212;-1.010;2022-09-14T01:09:55;0.50;;;0.50;;
62945;SDS011;52164;52.212;-1.010;2022-09-14T01:13:39;0.60;;;0.60;;
62945;SDS011;52164;52.212;-1.010;2022-09-14T01:15:26;0.50;;;0.50;;
62945;SDS011;52164;52.212;-1.010;2022-09-14T01:18:13;0.50;;;0.50;;
62945;SDS011;52164;52.212;-1.010;2022-09-14T01:20:47;0.50;;;0.50;;
62945;SDS011;52164;52.212;-1.010;2022-09-14T01:27:07;0.50;;;0.50;;
62945;SDS011;52164;52.212;-1.010;2022-09-14T01:29:05;0.50;;;0.50;;
62945;SDS011;52164;52.212;-1.010;2022-09-14T01:31:34;0.50;;;0.50;;
62945;SDS011;52164;52.212;-1.010;2022-09-14T01:34:09;0.60;;;0.60;;
62945;SDS011;52164;52.212;-1.010;2022-09-14T01:36:43;0.50;;;0.50;;
62945;SDS011;52164;52.212;-1.010;2022-09-14T01:39:12;0.50;;;0.50;;
62945;SDS011;52164;52.212;-1.010;2022-09-14T01:41:40;0.50;;;0.50;;
62945;SDS011;52164;52.212;-1.010;2022-09-14T01:44:10;0.50;;;0.50;;
62945;SDS011;52164;52.212;-1.010;2022-09-14T01:46:42;0.50;;;0.50;;
62945;SDS011;52164;52.212;-1.010;2022-09-14T01:49:45;0.50;;;0.50;;
62945;SDS011;52164;52.212;-1.010;2022-09-14T01:52:04;0.50;;;0.50;;
62945;SDS011;52164;52.212;-1.010;2022-09-14T01:54:38;0.50;;;0.50;;
62945;SDS011;52164;52.212;-1.010;2022-09-14T01:57:11;0.50;;;0.50;;
62945;SDS011;52164;52.212;-1.010;2022-09-14T01:59:43;0.50;;;0.50;;
62945;SDS011;52164;52.212;-1.010;2022-09-14T02:02:13;0.60;;;0.60;;
62945;SDS011;52164;52.212;-1.010;2022-09-14T02:06:05;0.50;;;0.50;;
62945;SDS011;52164;52.212;-1.010;2022-09-14T02:07:48;0.50;;;0.50;;
62945;SDS011;52164;52.212;-1.010;2022-09-14T02:10:14;0.50;;;0.50;;
62945;SDS011;52164;52.212;-1.010;2022-09-14T02:12:41;0.60;;;0.60;;
62945;SDS011;52164;52.212;-1.010;2022-09-14T02:15:08;0.50;;;0.50;;
62945;SDS011;52164;52.212;-1.010;2022-09-14T02:17:36;0.50;;;0.50;;
62945;SDS011;52164;52.212;-1.010;2022-09-14T02:20:03;0.50;;;0.50;;
62945;SDS011;52164;52.212;-1.010;2022-09-14T02:22:31;0.50;;;0.50;;
62945;SDS011;52164;52.212;-1.010;2022-09-14T02:24:57;0.50;;;0.50;;
62945;SDS011;52164;52.212;-1.010;2022-09-14T02:27:23;0.50;;;0.50;;
62945;SDS011;52164;52.212;-1.010;2022-09-14T02:29:49;0.50;;;0.50;;
62945;SDS011;52164;52.212;-1.010;2022-09-14T02:32:20;0.50;;;0.50;;
62945;SDS011;52164;52.212;-1.010;2022-09-14T02:34:52;0.60;;;0.60;;
62945;SDS011;52164;52.212;-1.010;2022-09-14T02:43:49;0.50;;;0.50;;
62945;SDS011;52164;52.212;-1.010;2022-09-14T02:48:20;0.50;;;0.50;;
62945;SDS011;52164;52.212;-1.010;2022-09-14T02:51:11;0.50;;;0.50;;
62945;SDS011;52164;52.212;-1.010;2022-09-14T02:56:10;0.50;;;0.50;;
62945;SDS011;52164;52.212;-1.010;2022-09-14T02:58:38;0.50;;;0.50;;
62945;SDS011;52164;52.212;-1.010;2022-09-14T03:01:05;0.60;;;0.60;;
62945;SDS011;52164;52.212;-1.010;2022-09-14T03:03:33;0.50;;;0.50;;
62945;SDS011;52164;52.212;-1.010;2022-09-14T03:05:59;0.50;;;0.50;;
62945;SDS011;52164;52.212;-1.010;2022-09-14T03:08:24;0.50;;;0.50;;
62945;SDS011;52164;52.212;-1.010;2022-09-14T03:10:51;0.50;;;0.50;;
62945;SDS011;52164;52.212;-1.010;2022-09-14T03:13:17;0.60;;;0.60;;
62945;SDS011;52164;52.212;-1.010;2022-09-14T03:15:42;0.50;;;0.50;;
62945;SDS011;52164;52.212;-1.010;2022-09-14T03:18:08;0.50;;;0.50;;
62945;SDS011;52164;52.212;-1.010;2022-09-14T03:20:34;0.50;;;0.50;;
62945;SDS011;52164;52.212;-1.010;2022-09-14T03:23:00;0.50;;;0.50;;
62945;SDS011;52164;52.212;-1.010;2022-09-14T03:25:27;0.50;;;0.50;;
62945;SDS011;52164;52.212;-1.010;2022-09-14T03:27:55;0.60;;;0.60;;
62945;SDS011;52164;52.212;-1.010;2022-09-14T03:30:23;0.50;;;0.50;;
62945;SDS011;52164;52.212;-1.010;2022-09-14T03:32:49;0.60;;;0.60;;
62945;SDS011;52164;52.212;-1.010;2022-09-14T03:35:14;0.50;;;0.50;;
62945;SDS011;52164;52.212;-1.010;2022-09-14T03:37:41;0.50;;;0.50;;
62945;SDS011;52164;52.212;-1.010;2022-09-14T03:40:08;0.50;;;0.50;;
62945;SDS011;52164;52.212;-1.010;2022-09-14T03:42:36;0.60;;;0.60;;
62945;SDS011;52164;52.212;-1.010;2022-09-14T03:45:06;0.50;;;0.50;;
62945;SDS011;52164;52.212;-1.010;2022-09-14T03:47:32;0.60;;;0.60;;
62945;SDS011;52164;52.212;-1.010;2022-09-14T03:49:57;0.50;;;0.50;;
62945;SDS011;52164;52.212;-1.010;2022-09-14T03:52:23;0.50;;;0.50;;
62945;SDS011;52164;52.212;-1.010;2022-09-14T03:54:48;0.50;;;0.50;;
62945;SDS011;52164;52.212;-1.010;2022-09-14T03:57:14;0.50;;;0.50;;
62945;SDS011;52164;52.212;-1.010;2022-09-14T03:59:40;0.50;;;0.50;;
62945;SDS011;52164;52.212;-1.010;2022-09-14T04:02:06;0.60;;;0.60;;
62945;SDS011;52164;52.212;-1.010;2022-09-14T04:04:31;0.50;;;0.50;;
62945;SDS011;52164;52.212;-1.010;2022-09-14T04:06:57;0.60;;;0.60;;
62945;SDS011;52164;52.212;-1.010;2022-09-14T04:09:22;0.50;;;0.50;;
62945;SDS011;52164;52.212;-1.010;2022-09-14T04:11:48;0.50;;;0.50;;
62945;SDS011;52164;52.212;-1.010;2022-09-14T04:14:13;0.50;;;0.50;;
62945;SDS011;52164;52.212;-1.010;2022-09-14T04:16:39;0.50;;;0.50;;
62945;SDS011;52164;52.212;-1.010;2022-09-14T04:19:07;0.60;;;0.60;;
62945;SDS011;52164;52.212;-1.010;2022-09-14T04:21:34;0.50;;;0.50;;
62945;SDS011;52164;52.212;-1.010;2022-09-14T04:23:59;0.50;;;0.50;;
62945;SDS011;52164;52.212;-1.010;2022-09-14T04:26:26;0.50;;;0.50;;
62945;SDS011;52164;52.212;-1.010;2022-09-14T04:28:54;0.60;;;0.60;;
62945;SDS011;52164;52.212;-1.010;2022-09-14T04:31:20;0.60;;;0.60;;
62945;SDS011;52164;52.212;-1.010;2022-09-14T04:33:46;0.50;;;0.50;;
62945;SDS011;52164;52.212;-1.010;2022-09-14T04:36:15;0.60;;;0.60;;
62945;SDS011;52164;52.212;-1.010;2022-09-14T04:38:44;0.50;;;0.50;;
62945;SDS011;52164;52.212;-1.010;2022-09-14T04:41:12;0.50;;;0.50;;
62945;SDS011;52164;52.212;-1.010;2022-09-14T04:43:39;0.50;;;0.50;;
62945;SDS011;52164;52.212;-1.010;2022-09-14T04:46:07;0.60;;;0.60;;
62945;SDS011;52164;52.212;-1.010;2022-09-14T04:48:35;0.50;;;0.50;;
62945;SDS011;52164;52.212;-1.010;2022-09-14T04:51:07;0.60;;;0.60;;
62945;SDS011;52164;52.212;-1.010;2022-09-14T04:53:35;0.60;;;0.60;;
62945;SDS011;52164;52.212;-1.010;2022-09-14T04:56:02;0.50;;;0.50;;
62945;SDS011;52164;52.212;-1.010;2022-09-14T04:58:32;0.60;;;0.60;;
62945;SDS011;52164;52.212;-1.010;2022-09-14T05:01:01;0.50;;;0.50;;
62945;SDS011;52164;52.212;-1.010;2022-09-14T05:03:32;0.60;;;0.60;;
62945;SDS011;52164;52.212;-1.010;2022-09-14T05:06:00;0.60;;;0.60;;
62945;SDS011;52164;52.212;-1.010;2022-09-14T05:08:27;0.50;;;0.50;;
62945;SDS011;52164;52.212;-1.010;2022-09-14T05:10:54;0.60;;;0.60;;
62945;SDS011;52164;52.212;-1.010;2022-09-14T05:13:21;0.60;;;0.60;;
62945;SDS011;52164;52.212;-1.010;2022-09-14T05:15:47;0.50;;;0.50;;
62945;SDS011;52164;52.212;-1.010;2022-09-14T05:18:13;0.50;;;0.50;;
62945;SDS011;52164;52.212;-1.010;2022-09-14T05:20:39;0.50;;;0.50;;
62945;SDS011;52164;52.212;-1.010;2022-09-14T05:23:04;0.50;;;0.50;;
62945;SDS011;52164;52.212;-1.010;2022-09-14T05:25:30;0.60;;;0.60;;
62945;SDS011;52164;52.212;-1.010;2022-09-14T05:27:56;0.50;;;0.50;;
62945;SDS011;52164;52.212;-1.010;2022-09-14T05:30:21;0.50;;;0.50;;
62945;SDS011;52164;52.212;-1.010;2022-09-14T05:32:47;0.50;;;0.50;;
62945;SDS011;52164;52.212;-1.010;2022-09-14T05:35:12;0.60;;;0.60;;
62945;SDS011;52164;52.212;-1.010;2022-09-14T05:37:38;0.50;;;0.50;;
62945;SDS011;52164;52.212;-1.010;2022-09-14T05:40:03;0.50;;;0.50;;
62945;SDS011;52164;52.212;-1.010;2022-09-14T05:42:30;0.60;;;0.60;;
62945;SDS011;52164;52.212;-1.010;2022-09-14T05:44:55;0.60;;;0.60;;
62945;SDS011;52164;52.212;-1.010;2022-09-14T05:47:21;0.50;;;0.50;;
62945;SDS011;52164;52.212;-1.010;2022-09-14T05:49:46;0.60;;;0.60;;
62945;SDS011;52164;52.212;-1.010;2022-09-14T05:52:12;0.60;;;0.60;;
62945;SDS011;52164;52.212;-1.010;2022-09-14T05:54:37;0.60;;;0.60;;
62945;SDS011;52164;52.212;-1.010;2022-09-14T05:57:03;0.50;;;0.50;;
62945;SDS011;52164;52.212;-1.010;2022-09-14T05:59:32;0.50;;;0.50;;
62945;SDS011;52164;52.212;-1.010;2022-09-14T06:01:58;0.60;;;0.60;;
62945;SDS011;52164;52.212;-1.010;2022-09-14T06:04:23;0.50;;;0.50;;
62945;SDS011;52164;52.212;-1.010;2022-09-14T06:06:49;0.60;;;0.60;;
62945;SDS011;52164;52.212;-1.010;2022-09-14T06:09:14;0.50;;;0.50;;
62945;SDS011;52164;52.212;-1.010;2022-09-14T06:11:40;0.60;;;0.60;;
62945;SDS011;52164;52.212;-1.010;2022-09-14T06:14:06;0.60;;;0.60;;
62945;SDS011;52164;52.212;-1.010;2022-09-14T06:16:32;0.60;;;0.60;;
62945;SDS011;52164;52.212;-1.010;2022-09-14T06:18:59;0.60;;;0.60;;
62945;SDS011;52164;52.212;-1.010;2022-09-14T06:21:27;0.60;;;0.60;;
62945;SDS011;52164;52.212;-1.010;2022-09-14T06:23:54;0.60;;;0.60;;
62945;SDS011;52164;52.212;-1.010;2022-09-14T06:26:20;0.60;;;0.60;;
62945;SDS011;52164;52.212;-1.010;2022-09-14T06:28:46;0.50;;;0.50;;
62945;SDS011;52164;52.212;-1.010;2022-09-14T06:31:14;0.50;;;0.50;;
62945;SDS011;52164;52.212;-1.010;2022-09-14T06:33:42;0.50;;;0.50;;
62945;SDS011;52164;52.212;-1.010;2022-09-14T06:36:09;0.50;;;0.50;;
62945;SDS011;52164;52.212;-1.010;2022-09-14T06:38:38;0.60;;;0.60;;
62945;SDS011;52164;52.212;-1.010;2022-09-14T06:41:11;0.50;;;0.50;;
62945;SDS011;52164;52.212;-1.010;2022-09-14T06:43:39;0.50;;;0.50;;
62945;SDS011;52164;52.212;-1.010;2022-09-14T06:46:10;0.60;;;0.60;;
62945;SDS011;52164;52.212;-1.010;2022-09-14T06:48:44;0.60;;;0.60;;
62945;SDS011;52164;52.212;-1.010;2022-09-14T06:51:18;0.50;;;0.50;;
62945;SDS011;52164;52.212;-1.010;2022-09-14T06:56:12;0.50;;;0.50;;
62945;SDS011;52164;52.212;-1.010;2022-09-14T06:58:39;0.50;;;0.50;;
62945;SDS011;52164;52.212;-1.010;2022-09-14T07:01:07;0.50;;;0.50;;
62945;SDS011;52164;52.212;-1.010;2022-09-14T07:03:36;0.50;;;0.50;;
62945;SDS011;52164;52.212;-1.010;2022-09-14T07:06:04;0.50;;;0.50;;
62945;SDS011;52164;52.212;-1.010;2022-09-14T07:08:32;0.60;;;0.60;;
62945;SDS011;52164;52.212;-1.010;2022-09-14T07:10:58;0.50;;;0.50;;
62945;SDS011;52164;52.212;-1.010;2022-09-14T07:13:24;0.60;;;0.60;;
62945;SDS011;52164;52.212;-1.010;2022-09-14T07:15:50;0.60;;;0.60;;
62945;SDS011;52164;52.212;-1.010;2022-09-14T07:18:16;0.50;;;0.50;;
62945;SDS011;52164;52.212;-1.010;2022-09-14T07:20:41;0.60;;;0.60;;
62945;SDS011;52164;52.212;-1.010;2022-09-14T07:23:07;0.60;;;0.60;;
62945;SDS011;52164;52.212;-1.010;2022-09-14T07:25:32;0.50;;;0.50;;
62945;SDS011;52164;52.212;-1.010;2022-09-14T07:27:58;0.50;;;0.50;;
62945;SDS011;52164;52.212;-1.010;2022-09-14T07:30:25;0.50;;;0.50;;
62945;SDS011;52164;52.212;-1.010;2022-09-14T07:32:53;0.50;;;0.50;;
62945;SDS011;52164;52.212;-1.010;2022-09-14T07:35:21;0.60;;;0.60;;
62945;SDS011;52164;52.212;-1.010;2022-09-14T07:37:47;0.60;;;0.60;;
62945;SDS011;52164;52.212;-1.010;2022-09-14T07:40:16;0.60;;;0.60;;
62945;SDS011;52164;52.212;-1.010;2022-09-14T07:42:41;0.50;;;0.50;;
62945;SDS011;52164;52.212;-1.010;2022-09-14T07:45:14;0.50;;;0.50;;
62945;SDS011;52164;52.212;-1.010;2022-09-14T07:47:40;0.50;;;0.50;;
62945;SDS011;52164;52.212;-1.010;2022-09-14T07:50:05;0.60;;;0.60;;
62945;SDS011;52164;52.212;-1.010;2022-09-14T07:52:31;0.60;;;0.60;;
62945;SDS011;52164;52.212;-1.010;2022-09-14T07:54:56;0.50;;;0.50;;
62945;SDS011;52164;52.212;-1.010;2022-09-14T07:57:21;0.60;;;0.60;;
62945;SDS011;52164;52.212;-1.010;2022-09-14T07:59:47;0.50;;;0.50;;
62945;SDS011;52164;52.212;-1.010;2022-09-14T08:02:12;0.60;;;0.60;;
62945;SDS011;52164;52.212;-1.010;2022-09-14T08:04:40;0.60;;;0.60;;
62945;SDS011;52164;52.212;-1.010;2022-09-14T08:07:06;0.60;;;0.60;;
62945;SDS011;52164;52.212;-1.010;2022-09-14T08:09:33;0.60;;;0.60;;
62945;SDS011;52164;52.212;-1.010;2022-09-14T08:11:58;0.60;;;0.60;;
62945;SDS011;52164;52.212;-1.010;2022-09-14T08:14:35;0.60;;;0.60;;
62945;SDS011;52164;52.212;-1.010;2022-09-14T08:17:01;0.50;;;0.50;;
62945;SDS011;52164;52.212;-1.010;2022-09-14T08:19:29;0.60;;;0.60;;
62945;SDS011;52164;52.212;-1.010;2022-09-14T08:21:55;0.60;;;0.60;;
62945;SDS011;52164;52.212;-1.010;2022-09-14T08:24:20;0.70;;;0.70;;
62945;SDS011;52164;52.212;-1.010;2022-09-14T08:26:46;0.60;;;0.60;;
62945;SDS011;52164;52.212;-1.010;2022-09-14T08:29:14;0.50;;;0.50;;
62945;SDS011;52164;52.212;-1.010;2022-09-14T08:31:40;0.50;;;0.50;;
62945;SDS011;52164;52.212;-1.010;2022-09-14T08:34:08;0.50;;;0.50;;
62945;SDS011;52164;52.212;-1.010;2022-09-14T08:36:34;0.50;;;0.50;;
62945;SDS011;52164;52.212;-1.010;2022-09-14T08:39:02;0.50;;;0.50;;
62945;SDS011;52164;52.212;-1.010;2022-09-14T08:41:32;0.50;;;0.50;;
62945;SDS011;52164;52.212;-1.010;2022-09-14T08:44:05;0.50;;;0.50;;
62945;SDS011;52164;52.212;-1.010;2022-09-14T08:46:38;0.50;;;0.50;;
62945;SDS011;52164;52.212;-1.010;2022-09-14T08:49:10;0.60;;;0.60;;
62945;SDS011;52164;52.212;-1.010;2022-09-14T08:51:49;0.50;;;0.50;;
62945;SDS011;52164;52.212;-1.010;2022-09-14T08:54:15;0.50;;;0.50;;
62945;SDS011;52164;52.212;-1.010;2022-09-14T08:56:43;0.50;;;0.50;;
62945;SDS011;52164;52.212;-1.010;2022-09-14T08:59:19;0.50;;;0.50;;
62945;SDS011;52164;52.212;-1.010;2022-09-14T09:02:03;0.60;;;0.60;;
62945;SDS011;52164;52.212;-1.010;2022-09-14T09:07:23;0.50;;;0.50;;
62945;SDS011;52164;52.212;-1.010;2022-09-14T09:09:56;0.50;;;0.50;;
62945;SDS011;52164;52.212;-1.010;2022-09-14T09:12:28;0.50;;;0.50;;
62945;SDS011;52164;52.212;-1.010;2022-09-14T09:14:58;0.40;;;0.40;;
62945;SDS011;52164;52.212;-1.010;2022-09-14T09:17:30;0.50;;;0.50;;
62945;SDS011;52164;52.212;-1.010;2022-09-14T09:22:46;0.50;;;0.50;;
62945;SDS011;52164;52.212;-1.010;2022-09-14T09:25:19;0.50;;;0.50;;
62945;SDS011;52164;52.212;-1.010;2022-09-14T09:27:53;0.50;;;0.50;;
62945;SDS011;52164;52.212;-1.010;2022-09-14T09:30:20;0.40;;;0.40;;
62945;SDS011;52164;52.212;-1.010;2022-09-14T09:32:45;0.50;;;0.50;;
62945;SDS011;52164;52.212;-1.010;2022-09-14T09:35:13;0.50;;;0.50;;
62945;SDS011;52164;52.212;-1.010;2022-09-14T09:37:43;0.50;;;0.50;;
62945;SDS011;52164;52.212;-1.010;2022-09-14T09:40:29;0.50;;;0.50;;
62945;SDS011;52164;52.212;-1.010;2022-09-14T09:43:03;0.40;;;0.40;;
62945;SDS011;52164;52.212;-1.010;2022-09-14T09:46:03;0.50;;;0.50;;
62945;SDS011;52164;52.212;-1.010;2022-09-14T09:48:19;0.50;;;0.50;;
62945;SDS011;52164;52.212;-1.010;2022-09-14T09:50:50;0.50;;;0.50;;
62945;SDS011;52164;52.212;-1.010;2022-09-14T09:53:23;0.50;;;0.50;;
62945;SDS011;52164;52.212;-1.010;2022-09-14T09:55:49;0.50;;;0.50;;
62945;SDS011;52164;52.212;-1.010;2022-09-14T09:58:33;0.40;;;0.40;;
62945;SDS011;52164;52.212;-1.010;2022-09-14T10:01:04;0.50;;;0.50;;
62945;SDS011;52164;52.212;-1.010;2022-09-14T10:03:34;0.50;;;0.50;;
62945;SDS011;52164;52.212;-1.010;2022-09-14T10:08:29;0.40;;;0.40;;
62945;SDS011;52164;52.212;-1.010;2022-09-14T10:10:59;0.50;;;0.50;;
62945;SDS011;52164;52.212;-1.010;2022-09-14T10:16:30;0.40;;;0.40;;
62945;SDS011;52164;52.212;-1.010;2022-09-14T10:18:42;0.40;;;0.40;;
62945;SDS011;52164;52.212;-1.010;2022-09-14T10:21:09;0.50;;;0.50;;
62945;SDS011;52164;52.212;-1.010;2022-09-14T10:23:36;0.50;;;0.50;;
62945;SDS011;52164;52.212;-1.010;2022-09-14T10:26:18;0.40;;;0.40;;
62945;SDS011;52164;52.212;-1.010;2022-09-14T10:28:49;0.40;;;0.40;;
62945;SDS011;52164;52.212;-1.010;2022-09-14T10:33:44;0.50;;;0.50;;
62945;SDS011;52164;52.212;-1.010;2022-09-14T10:38:55;0.40;;;0.40;;
62945;SDS011;52164;52.212;-1.010;2022-09-14T10:41:31;0.50;;;0.50;;
62945;SDS011;52164;52.212;-1.010;2022-09-14T10:46:11;0.50;;;0.50;;
62945;SDS011;52164;52.212;-1.010;2022-09-14T10:54:00;0.40;;;0.40;;
62945;SDS011;52164;52.212;-1.010;2022-09-14T10:56:09;0.50;;;0.50;;
62945;SDS011;52164;52.212;-1.010;2022-09-14T11:02:03;0.40;;;0.40;;
62945;SDS011;52164;52.212;-1.010;2022-09-14T11:04:44;0.40;;;0.40;;
62945;SDS011;52164;52.212;-1.010;2022-09-14T11:07:38;0.50;;;0.50;;
62945;SDS011;52164;52.212;-1.010;2022-09-14T11:10:19;0.50;;;0.50;;
62945;SDS011;52164;52.212;-1.010;2022-09-14T11:12:51;0.50;;;0.50;;
62945;SDS011;52164;52.212;-1.010;2022-09-14T11:15:47;0.40;;;0.40;;
62945;SDS011;52164;52.212;-1.010;2022-09-14T11:22:17;0.40;;;0.40;;
62945;SDS011;52164;52.212;-1.010;2022-09-14T11:27:09;0.50;;;0.50;;
62945;SDS011;52164;52.212;-1.010;2022-09-14T11:29:42;0.50;;;0.50;;
62945;SDS011;52164;52.212;-1.010;2022-09-14T11:32:16;0.60;;;0.60;;
62945;SDS011;52164;52.212;-1.010;2022-09-14T11:34:48;0.50;;;0.50;;
62945;SDS011;52164;52.212;-1.010;2022-09-14T11:37:21;0.40;;;0.40;;
62945;SDS011;52164;52.212;-1.010;2022-09-14T11:40:04;0.50;;;0.50;;
62945;SDS011;52164;52.212;-1.010;2022-09-14T11:42:59;0.50;;;0.50;;
62945;SDS011;52164;52.212;-1.010;2022-09-14T11:45:34;0.50;;;0.50;;
62945;SDS011;52164;52.212;-1.010;2022-09-14T11:48:15;0.50;;;0.50;;
62945;SDS011;52164;52.212;-1.010;2022-09-14T11:50:56;0.40;;;0.40;;
62945;SDS011;52164;52.212;-1.010;2022-09-14T11:53:30;0.40;;;0.40;;
62945;SDS011;52164;52.212;-1.010;2022-09-14T11:55:56;0.40;;;0.40;;
62945;SDS011;52164;52.212;-1.010;2022-09-14T11:58:23;0.40;;;0.40;;
62945;SDS011;52164;52.212;-1.010;2022-09-14T12:01:02;0.40;;;0.40;;
62945;SDS011;52164;52.212;-1.010;2022-09-14T12:06:49;0.40;;;0.40;;
62945;SDS011;52164;52.212;-1.010;2022-09-14T12:11:50;0.40;;;0.40;;
62945;SDS011;52164;52.212;-1.010;2022-09-14T12:14:29;0.50;;;0.50;;
62945;SDS011;52164;52.212;-1.010;2022-09-14T12:19:50;0.40;;;0.40;;
62945;SDS011;52164;52.212;-1.010;2022-09-14T12:22:17;0.50;;;0.50;;
62945;SDS011;52164;52.212;-1.010;2022-09-14T12:24:43;0.40;;;0.40;;
62945;SDS011;52164;52.212;-1.010;2022-09-14T12:27:24;0.40;;;0.40;;
62945;SDS011;52164;52.212;-1.010;2022-09-14T12:29:50;0.40;;;0.40;;
62945;SDS011;52164;52.212;-1.010;2022-09-14T12:32:24;0.40;;;0.40;;
62945;SDS011;52164;52.212;-1.010;2022-09-14T12:35:59;0.50;;;0.50;;
62945;SDS011;52164;52.212;-1.010;2022-09-14T12:37:57;0.50;;;0.50;;
62945;SDS011;52164;52.212;-1.010;2022-09-14T12:40:32;0.40;;;0.40;;
62945;SDS011;52164;52.212;-1.010;2022-09-14T12:48:54;0.50;;;0.50;;
62945;SDS011;52164;52.212;-1.010;2022-09-14T12:53:57;0.40;;;0.40;;
62945;SDS011;52164;52.212;-1.010;2022-09-14T13:04:22;0.50;;;0.50;;
62945;SDS011;52164;52.212;-1.010;2022-09-14T13:06:50;0.50;;;0.50;;
62945;SDS011;52164;52.212;-1.010;2022-09-14T13:09:21;0.50;;;0.50;;
62945;SDS011;52164;52.212;-1.010;2022-09-14T13:11:57;0.50;;;0.50;;
62945;SDS011;52164;52.212;-1.010;2022-09-14T13:14:27;0.40;;;0.40;;
62945;SDS011;52164;52.212;-1.010;2022-09-14T13:16:56;0.40;;;0.40;;
62945;SDS011;52164;52.212;-1.010;2022-09-14T13:19:28;0.40;;;0.40;;
62945;SDS011;52164;52.212;-1.010;2022-09-14T13:21:57;0.40;;;0.40;;
62945;SDS011;52164;52.212;-1.010;2022-09-14T13:26:54;0.50;;;0.50;;
62945;SDS011;52164;52.212;-1.010;2022-09-14T13:29:21;0.50;;;0.50;;
62945;SDS011;52164;52.212;-1.010;2022-09-14T13:31:50;0.50;;;0.50;;
62945;SDS011;52164;52.212;-1.010;2022-09-14T13:34:21;0.70;;;0.70;;
62945;SDS011;52164;52.212;-1.010;2022-09-14T13:36:49;0.70;;;0.70;;
62945;SDS011;52164;52.212;-1.010;2022-09-14T13:39:24;0.80;;;0.80;;
62945;SDS011;52164;52.212;-1.010;2022-09-14T13:41:59;0.90;;;0.90;;
62945;SDS011;52164;52.212;-1.010;2022-09-14T13:44:30;0.90;;;0.90;;
62945;SDS011;52164;52.212;-1.010;2022-09-14T13:47:00;0.90;;;0.90;;
62945;SDS011;52164;52.212;-1.010;2022-09-14T13:49:29;1.00;;;1.00;;
62945;SDS011;52164;52.212;-1.010;2022-09-14T13:52:33;1.00;;;1.00;;
62945;SDS011;52164;52.212;-1.010;2022-09-14T13:54:45;1.00;;;1.00;;
62945;SDS011;52164;52.212;-1.010;2022-09-14T13:57:20;1.00;;;1.00;;
62945;SDS011;52164;52.212;-1.010;2022-09-14T14:00:19;0.90;;;0.90;;
62945;SDS011;52164;52.212;-1.010;2022-09-14T14:02:42;0.90;;;0.90;;
62945;SDS011;52164;52.212;-1.010;2022-09-14T14:05:42;0.90;;;0.90;;
62945;SDS011;52164;52.212;-1.010;2022-09-14T14:07:58;0.90;;;0.90;;
62945;SDS011;52164;52.212;-1.010;2022-09-14T14:13:01;1.00;;;1.00;;
62945;SDS011;52164;52.212;-1.010;2022-09-14T14:15:32;0.90;;;0.90;;
62945;SDS011;52164;52.212;-1.010;2022-09-14T14:18:16;0.80;;;0.80;;
62945;SDS011;52164;52.212;-1.010;2022-09-14T14:21:12;0.90;;;0.90;;
62945;SDS011;52164;52.212;-1.010;2022-09-14T14:23:40;1.00;;;1.00;;
62945;SDS011;52164;52.212;-1.010;2022-09-14T14:26:07;1.00;;;1.00;;
62945;SDS011;52164;52.212;-1.010;2022-09-14T14:28:37;0.90;;;0.90;;
62945;SDS011;52164;52.212;-1.010;2022-09-14T14:31:04;0.90;;;0.90;;
62945;SDS011;52164;52.212;-1.010;2022-09-14T14:36:00;0.90;;;0.90;;
62945;SDS011;52164;52.212;-1.010;2022-09-14T14:38:33;0.90;;;0.90;;
62945;SDS011;52164;52.212;-1.010;2022-09-14T14:40:58;0.90;;;0.90;;
62945;SDS011;52164;52.212;-1.010;2022-09-14T14:43:24;1.00;;;1.00;;
62945;SDS011;52164;52.212;-1.010;2022-09-14T14:45:55;0.80;;;0.80;;
62945;SDS011;52164;52.212;-1.010;2022-09-14T14:48:23;0.90;;;0.90;;
62945;SDS011;52164;52.212;-1.010;2022-09-14T14:50:49;0.60;;;0.60;;
62945;SDS011;52164;52.212;-1.010;2022-09-14T14:53:15;0.60;;;0.60;;
62945;SDS011;52164;52.212;-1.010;2022-09-14T14:55:40;0.60;;;0.60;;
62945;SDS011;52164;52.212;-1.010;2022-09-14T14:58:06;0.60;;;0.60;;
62945;SDS011;52164;52.212;-1.010;2022-09-14T15:00:39;0.40;;;0.40;;
62945;SDS011;52164;52.212;-1.010;2022-09-14T15:03:04;0.30;;;0.30;;
62945;SDS011;52164;52.212;-1.010;2022-09-14T15:05:30;0.30;;;0.30;;
62945;SDS011;52164;52.212;-1.010;2022-09-14T15:07:56;0.40;;;0.40;;
62945;SDS011;52164;52.212;-1.010;2022-09-14T15:10:23;0.30;;;0.30;;
62945;SDS011;52164;52.212;-1.010;2022-09-14T15:12:54;0.40;;;0.40;;
62945;SDS011;52164;52.212;-1.010;2022-09-14T15:15:21;0.30;;;0.30;;
62945;SDS011;52164;52.212;-1.010;2022-09-14T15:17:48;0.30;;;0.30;;
62945;SDS011;52164;52.212;-1.010;2022-09-14T15:20:14;0.40;;;0.40;;
62945;SDS011;52164;52.212;-1.010;2022-09-14T15:22:40;0.40;;;0.40;;
62945;SDS011;52164;52.212;-1.010;2022-09-14T15:25:07;0.40;;;0.40;;
62945;SDS011;52164;52.212;-1.010;2022-09-14T15:27:33;0.40;;;0.40;;
62945;SDS011;52164;52.212;-1.010;2022-09-14T15:29:59;0.30;;;0.30;;
62945;SDS011;52164;52.212;-1.010;2022-09-14T15:32:24;0.40;;;0.40;;
62945;SDS011;52164;52.212;-1.010;2022-09-14T15:34:50;0.60;;;0.60;;
62945;SDS011;52164;52.212;-1.010;2022-09-14T15:37:17;0.50;;;0.50;;
62945;SDS011;52164;52.212;-1.010;2022-09-14T15:39:46;0.50;;;0.50;;
62945;SDS011;52164;52.212;-1.010;2022-09-14T15:42:14;0.50;;;0.50;;
62945;SDS011;52164;52.212;-1.010;2022-09-14T15:44:41;0.40;;;0.40;;
62945;SDS011;52164;52.212;-1.010;2022-09-14T15:47:06;0.40;;;0.40;;
62945;SDS011;52164;52.212;-1.010;2022-09-14T15:49:33;0.40;;;0.40;;
62945;SDS011;52164;52.212;-1.010;2022-09-14T15:51:58;0.40;;;0.40;;
62945;SDS011;52164;52.212;-1.010;2022-09-14T15:54:24;0.40;;;0.40;;
62945;SDS011;52164;52.212;-1.010;2022-09-14T15:56:55;0.40;;;0.40;;
62945;SDS011;52164;52.212;-1.010;2022-09-14T15:59:23;0.40;;;0.40;;
62945;SDS011;52164;52.212;-1.010;2022-09-14T16:01:52;0.40;;;0.40;;
62945;SDS011;52164;52.212;-1.010;2022-09-14T16:04:18;0.40;;;0.40;;
62945;SDS011;52164;52.212;-1.010;2022-09-14T16:06:49;0.50;;;0.50;;
62945;SDS011;52164;52.212;-1.010;2022-09-14T16:09:17;0.40;;;0.40;;
62945;SDS011;52164;52.212;-1.010;2022-09-14T16:11:45;0.40;;;0.40;;
62945;SDS011;52164;52.212;-1.010;2022-09-14T16:14:11;0.50;;;0.50;;